createdAt,value
2023-03-21T00:00:12.093Z,7.70
2023-03-21T00:01:11.044Z,7.40
2023-03-21T00:02:11.083Z,6.90
2023-03-21T00:03:11.067Z,7.10
2023-03-21T00:04:11.073Z,7.90
2023-03-21T00:05:15.822Z,7.90
2023-03-21T00:06:11.988Z,8.20
2023-03-21T00:07:10.993Z,7.50
2023-03-21T00:08:10.956Z,8.50
2023-03-21T00:09:10.947Z,8.10
2023-03-21T00:10:16.741Z,8.80
2023-03-21T00:11:11.908Z,9.00
2023-03-21T00:12:10.915Z,8.80
2023-03-21T00:13:10.884Z,9.00
2023-03-21T00:14:10.866Z,8.40
2023-03-21T00:15:10.862Z,8.80
2023-03-21T00:16:14.078Z,8.50
2023-03-21T00:17:11.858Z,8.60
2023-03-21T00:18:10.820Z,8.10
2023-03-21T00:19:10.807Z,7.90
2023-03-21T00:20:10.794Z,7.70
2023-03-21T00:21:39.219Z,7.30
2023-03-21T00:22:11.774Z,8.20
2023-03-21T00:23:10.751Z,7.40
2023-03-21T00:24:10.733Z,7.40
2023-03-21T00:25:10.742Z,7.00
2023-03-21T00:26:10.737Z,7.10
2023-03-21T00:27:39.448Z,6.60
2023-03-21T00:28:11.682Z,6.60
2023-03-21T00:29:10.679Z,6.70
2023-03-21T00:30:10.663Z,6.20
2023-03-21T00:31:10.659Z,5.80
2023-03-21T00:32:10.646Z,6.20
2023-03-21T00:33:22.118Z,5.90
2023-03-21T00:35:45.346Z,5.90
2023-03-21T00:36:11.939Z,6.00
2023-03-21T00:37:10.571Z,6.00
2023-03-21T00:38:10.588Z,6.20
2023-03-21T00:39:10.537Z,6.50
2023-03-21T00:40:16.313Z,5.80
2023-03-21T00:41:23.302Z,6.00
2023-03-21T00:42:11.502Z,5.60
2023-03-21T00:43:10.490Z,5.90
2023-03-21T00:44:10.473Z,5.90
2023-03-21T00:45:10.457Z,5.60
2023-03-21T00:46:10.504Z,5.30
2023-03-21T00:47:10.495Z,5.50
2023-03-21T00:48:10.502Z,5.90
2023-03-21T00:49:10.412Z,6.10
2023-03-21T00:50:10.382Z,5.80
2023-03-21T00:51:10.402Z,6.40
2023-03-21T00:52:20.443Z,6.20
2023-03-21T00:53:11.353Z,6.10
2023-03-21T00:54:10.342Z,6.30
2023-03-21T00:55:10.322Z,6.20
2023-03-21T00:56:10.312Z,5.80
2023-03-21T00:57:10.333Z,6.50
2023-03-21T00:58:10.290Z,6.20
2023-03-21T00:59:10.280Z,6.10
2023-03-21T01:00:10.290Z,6.10
2023-03-21T01:01:10.264Z,6.10
2023-03-21T01:02:10.258Z,6.00
2023-03-21T01:03:23.125Z,5.40
2023-03-21T01:04:11.233Z,6.60
2023-03-21T01:05:10.190Z,6.20
2023-03-21T01:06:10.180Z,5.70
2023-03-21T01:07:10.163Z,6.40
2023-03-21T01:08:23.795Z,6.20
2023-03-21T01:09:11.130Z,5.90
2023-03-21T01:10:10.129Z,6.00
2023-03-21T01:11:10.128Z,6.50
2023-03-21T01:12:10.124Z,5.30
2023-03-21T01:13:10.083Z,5.40
2023-03-21T01:14:22.096Z,5.70
2023-03-21T01:15:11.059Z,5.80
2023-03-21T01:16:10.101Z,5.30
2023-03-21T01:17:10.053Z,5.10
2023-03-21T01:18:10.028Z,5.70
2023-03-21T01:19:22.254Z,5.60
2023-03-21T01:20:10.986Z,5.40
2023-03-21T01:21:09.984Z,5.30
2023-03-21T01:22:09.983Z,5.70
2023-03-21T01:23:09.938Z,5.60
2023-03-21T01:24:09.942Z,5.40
2023-03-21T01:25:21.984Z,4.60
2023-03-21T01:26:10.907Z,5.80
2023-03-21T01:27:09.918Z,5.30
2023-03-21T01:28:09.893Z,5.00
2023-03-21T01:29:09.869Z,5.30
2023-03-21T01:30:19.055Z,5.50
2023-03-21T01:31:10.875Z,5.20
2023-03-21T01:32:09.836Z,5.90
2023-03-21T01:33:09.805Z,5.50
2023-03-21T01:34:09.810Z,5.40
2023-03-21T01:35:09.788Z,6.50
2023-03-21T01:36:13.545Z,6.10
2023-03-21T01:37:09.770Z,6.10
2023-03-21T01:38:09.764Z,6.20
2023-03-21T01:39:09.732Z,5.60
2023-03-21T01:40:09.741Z,5.60
2023-03-21T01:41:19.229Z,5.60
2023-03-21T01:42:10.702Z,5.90
2023-03-21T01:43:09.692Z,6.00
2023-03-21T01:44:09.668Z,5.80
2023-03-21T01:45:09.654Z,6.00
2023-03-21T01:46:09.759Z,6.10
2023-03-21T01:47:11.939Z,6.10
2023-03-21T01:48:09.758Z,5.70
2023-03-21T01:49:09.658Z,6.60
2023-03-21T01:50:09.582Z,6.40
2023-03-21T01:51:09.563Z,6.80
2023-03-21T01:52:15.280Z,6.30
2023-03-21T01:53:10.533Z,5.60
2023-03-21T01:54:09.526Z,5.80
2023-03-21T01:55:09.534Z,6.00
2023-03-21T01:56:09.503Z,6.30
2023-03-21T01:57:09.493Z,6.90
2023-03-21T01:58:09.591Z,6.80
2023-03-21T01:59:09.479Z,6.80
2023-03-21T02:00:09.446Z,6.90
2023-03-21T02:01:09.487Z,6.90
2023-03-21T02:02:09.442Z,7.10
2023-03-21T02:03:15.125Z,7.00
2023-03-21T02:04:10.426Z,6.70
2023-03-21T02:05:09.372Z,7.30
2023-03-21T02:06:09.388Z,6.60
2023-03-21T02:07:09.357Z,7.20
2023-03-21T02:08:09.345Z,7.50
2023-03-21T02:09:09.325Z,6.80
2023-03-21T02:10:09.309Z,7.70
2023-03-21T02:11:09.294Z,7.20
2023-03-21T02:12:09.301Z,6.50
2023-03-21T02:13:09.264Z,7.20
2023-03-21T02:14:10.102Z,7.90
2023-03-21T02:15:09.237Z,7.30
2023-03-21T02:16:09.253Z,6.90
2023-03-21T02:17:09.231Z,7.10
2023-03-21T02:18:09.198Z,7.60
2023-03-21T02:19:09.178Z,7.20
2023-03-21T02:20:09.190Z,6.20
2023-03-21T02:21:09.149Z,7.10
2023-03-21T02:22:09.162Z,7.50
2023-03-21T02:23:09.119Z,6.90
2023-03-21T02:24:09.118Z,7.00
2023-03-21T02:25:21.169Z,7.20
2023-03-21T02:26:10.086Z,7.10
2023-03-21T02:27:09.109Z,6.90
2023-03-21T02:28:09.058Z,6.90
2023-03-21T02:29:09.050Z,7.10
2023-03-21T02:30:09.934Z,6.60
2023-03-21T02:31:09.063Z,6.40
2023-03-21T02:32:19.977Z,7.00
2023-03-21T02:33:09.997Z,7.00
2023-03-21T02:34:08.978Z,6.60
2023-03-21T02:35:08.976Z,6.90
2023-03-21T02:36:14.252Z,7.50
2023-03-21T02:37:10.012Z,7.70
2023-03-21T02:38:08.929Z,6.60
2023-03-21T02:39:08.936Z,6.80
2023-03-21T02:40:08.897Z,6.00
2023-03-21T02:41:18.049Z,5.40
2023-03-21T02:42:09.913Z,5.60
2023-03-21T02:43:17.049Z,5.90
2023-03-21T02:44:09.877Z,6.30
2023-03-21T02:45:08.832Z,5.80
2023-03-21T02:46:08.867Z,6.50
2023-03-21T02:47:08.843Z,6.80
2023-03-21T02:48:14.555Z,6.40
2023-03-21T02:49:09.850Z,6.50
2023-03-21T02:50:08.776Z,7.70
2023-03-21T02:51:08.755Z,6.70
2023-03-21T02:52:15.582Z,6.10
2023-03-21T02:53:09.740Z,7.10
2023-03-21T02:55:09.707Z,6.60
2023-03-21T02:56:08.687Z,6.60
2023-03-21T02:57:08.687Z,6.20
2023-03-21T02:58:13.085Z,6.30
2023-03-21T02:59:08.688Z,5.90
2023-03-21T03:00:16.130Z,6.80
2023-03-21T03:01:09.670Z,7.00
2023-03-21T03:02:08.618Z,7.30
2023-03-21T03:03:11.460Z,7.10
2023-03-21T03:04:09.597Z,7.00
2023-03-21T03:05:18.023Z,7.60
2023-03-21T03:06:09.565Z,6.80
2023-03-21T03:07:08.572Z,6.80
2023-03-21T03:08:08.553Z,6.90
2023-03-21T03:09:08.538Z,6.90
2023-03-21T03:10:08.498Z,6.80
2023-03-21T03:11:08.501Z,6.70
2023-03-21T03:12:08.489Z,6.80
2023-03-21T03:13:08.477Z,6.80
2023-03-21T03:14:32.174Z,6.60
2023-03-21T03:15:09.440Z,6.50
2023-03-21T03:16:08.439Z,6.60
2023-03-21T03:17:08.432Z,6.30
2023-03-21T03:18:08.404Z,7.00
2023-03-21T03:19:08.379Z,7.00
2023-03-21T03:20:16.260Z,7.10
2023-03-21T03:21:09.373Z,7.30
2023-03-21T03:22:08.372Z,6.80
2023-03-21T03:23:08.369Z,7.20
2023-03-21T03:24:08.318Z,6.80
2023-03-21T03:25:19.742Z,6.80
2023-03-21T03:26:09.300Z,6.50
2023-03-21T03:27:08.298Z,6.30
2023-03-21T03:28:08.256Z,6.90
2023-03-21T03:29:08.247Z,7.10
2023-03-21T03:30:08.226Z,7.20
2023-03-21T03:31:10.107Z,6.90
2023-03-21T03:32:08.278Z,6.80
2023-03-21T03:33:08.198Z,7.10
2023-03-21T03:34:08.201Z,7.20
2023-03-21T03:35:08.198Z,6.80
2023-03-21T03:36:09.468Z,6.70
2023-03-21T03:37:08.165Z,7.10
2023-03-21T03:38:08.141Z,7.30
2023-03-21T03:39:08.123Z,6.50
2023-03-21T03:40:08.107Z,6.20
2023-03-21T03:41:08.096Z,6.50
2023-03-21T03:42:21.770Z,6.00
2023-03-21T03:43:09.055Z,6.00
2023-03-21T03:44:08.053Z,7.00
2023-03-21T03:45:08.031Z,6.90
2023-03-21T03:46:08.065Z,7.40
2023-03-21T03:47:08.016Z,6.60
2023-03-21T03:48:08.093Z,8.00
2023-03-21T03:49:07.988Z,7.80
2023-03-21T03:50:07.969Z,7.30
2023-03-21T03:51:07.954Z,7.50
2023-03-21T03:52:07.943Z,7.50
2023-03-21T03:53:16.353Z,8.00
2023-03-21T03:54:08.914Z,9.10
2023-03-21T03:55:07.899Z,8.30
2023-03-21T03:56:07.896Z,9.10
2023-03-21T03:57:07.890Z,8.80
2023-03-21T03:58:16.324Z,8.50
2023-03-21T03:59:08.859Z,7.90
2023-03-21T04:00:07.828Z,7.90
2023-03-21T04:01:07.838Z,7.00
2023-03-21T04:02:07.892Z,7.60
2023-03-21T04:03:07.849Z,7.40
2023-03-21T04:04:13.226Z,7.20
2023-03-21T04:05:08.772Z,6.80
2023-03-21T04:06:07.751Z,8.40
2023-03-21T04:07:07.776Z,8.10
2023-03-21T04:08:07.747Z,8.40
2023-03-21T04:09:18.794Z,7.70
2023-03-21T04:10:08.712Z,8.00
2023-03-21T04:11:07.691Z,8.20
2023-03-21T04:12:07.692Z,8.50
2023-03-21T04:13:07.682Z,9.00
2023-03-21T04:14:07.660Z,8.50
2023-03-21T04:15:10.668Z,8.40
2023-03-21T04:16:07.679Z,8.40
2023-03-21T04:17:07.812Z,8.50
2023-03-21T04:18:07.660Z,8.40
2023-03-21T04:19:07.621Z,8.40
2023-03-21T04:20:12.151Z,9.00
2023-03-21T04:21:08.573Z,9.10
2023-03-21T04:22:07.633Z,8.80
2023-03-21T04:23:07.572Z,8.70
2023-03-21T04:24:07.510Z,8.90
2023-03-21T04:25:07.513Z,9.00
2023-03-21T04:26:07.479Z,8.60
2023-03-21T04:27:07.490Z,8.60
2023-03-21T04:28:07.472Z,8.50
2023-03-21T04:29:07.452Z,9.10
2023-03-21T04:30:07.453Z,8.80
2023-03-21T04:31:16.130Z,8.50
2023-03-21T04:32:08.443Z,9.00
2023-03-21T04:33:07.396Z,8.80
2023-03-21T04:34:07.381Z,9.00
2023-03-21T04:35:07.373Z,8.70
2023-03-21T04:36:07.421Z,8.10
2023-03-21T04:37:07.361Z,8.50
2023-03-21T04:38:07.329Z,9.70
2023-03-21T04:39:07.327Z,9.20
2023-03-21T04:40:07.314Z,9.50
2023-03-21T04:41:07.288Z,9.40
2023-03-21T04:42:07.278Z,9.10
2023-03-21T04:43:07.289Z,9.20
2023-03-21T04:44:07.269Z,9.30
2023-03-21T04:45:07.249Z,8.60
2023-03-21T04:46:07.259Z,8.20
2023-03-21T04:47:07.225Z,8.50
2023-03-21T04:48:07.233Z,8.60
2023-03-21T04:49:07.191Z,8.30
2023-03-21T04:50:07.163Z,8.40
2023-03-21T04:51:07.178Z,8.30
2023-03-21T04:52:07.147Z,7.40
2023-03-21T04:53:07.148Z,7.90
2023-03-21T04:54:44.462Z,8.70
2023-03-21T04:55:44.357Z,8.90
2023-03-21T04:56:44.357Z,8.70
2023-03-21T04:57:44.342Z,8.20
2023-03-21T04:58:44.331Z,7.00
2023-03-21T04:59:44.300Z,7.50
2023-03-21T05:00:44.346Z,7.40
2023-03-21T05:01:44.290Z,7.60
2023-03-21T05:02:44.261Z,8.10
2023-03-21T05:03:44.262Z,7.60
2023-03-21T05:04:44.240Z,7.70
2023-03-21T05:05:44.221Z,8.40
2023-03-21T05:06:44.231Z,7.90
2023-03-21T05:07:44.191Z,8.00
2023-03-21T05:08:44.180Z,8.00
2023-03-21T05:09:44.159Z,8.10
2023-03-21T05:10:44.182Z,8.10
2023-03-21T05:11:44.176Z,8.10
2023-03-21T05:12:44.128Z,8.00
2023-03-21T05:13:44.114Z,7.60
2023-03-21T05:14:44.096Z,7.50
2023-03-21T05:15:44.087Z,8.50
2023-03-21T05:16:44.141Z,7.60
2023-03-21T05:17:44.057Z,8.20
2023-03-21T05:18:44.048Z,7.60
2023-03-21T05:19:44.059Z,8.60
2023-03-21T05:20:44.035Z,7.70
2023-03-21T05:21:44.021Z,7.50
2023-03-21T05:22:43.989Z,7.60
2023-03-21T05:23:43.982Z,7.50
2023-03-21T05:24:43.957Z,7.60
2023-03-21T05:25:43.945Z,7.60
2023-03-21T05:26:43.970Z,8.60
2023-03-21T05:27:43.917Z,8.40
2023-03-21T05:28:43.913Z,8.80
2023-03-21T05:29:43.897Z,8.40
2023-03-21T05:30:43.904Z,7.80
2023-03-21T05:31:43.874Z,8.00
2023-03-21T05:32:43.874Z,8.10
2023-03-21T05:33:43.856Z,8.50
2023-03-21T05:34:43.846Z,8.00
2023-03-21T05:35:43.895Z,8.60
2023-03-21T05:36:43.835Z,8.00
2023-03-21T05:37:43.800Z,8.30
2023-03-21T05:38:43.786Z,7.80
2023-03-21T05:39:43.767Z,7.80
2023-03-21T05:40:43.768Z,7.90
2023-03-21T05:41:43.753Z,8.00
2023-03-21T05:42:43.739Z,7.30
2023-03-21T05:43:43.726Z,7.70
2023-03-21T05:44:43.706Z,8.50
2023-03-21T05:45:43.694Z,8.80
2023-03-21T05:46:43.699Z,8.70
2023-03-21T05:47:43.719Z,8.40
2023-03-21T05:48:43.657Z,7.80
2023-03-21T05:49:43.647Z,8.00
2023-03-21T05:50:43.616Z,8.70
2023-03-21T05:51:43.609Z,8.40
2023-03-21T05:52:43.594Z,8.00
2023-03-21T05:53:43.593Z,8.10
2023-03-21T05:54:43.586Z,8.10
2023-03-21T05:55:43.567Z,8.20
2023-03-21T05:56:43.546Z,8.50
2023-03-21T05:57:43.535Z,8.10
2023-03-21T05:58:43.510Z,8.20
2023-03-21T05:59:43.498Z,8.00
2023-03-21T06:00:43.491Z,8.40
2023-03-21T06:01:43.500Z,8.10
2023-03-21T06:02:43.497Z,7.80
2023-03-21T06:03:43.549Z,7.60
2023-03-21T06:04:43.446Z,7.80
2023-03-21T06:05:43.424Z,8.10
2023-03-21T06:06:43.408Z,8.20
2023-03-21T06:07:43.413Z,8.10
2023-03-21T06:08:43.375Z,7.60
2023-03-21T06:09:43.386Z,7.90
2023-03-21T06:10:43.356Z,7.30
2023-03-21T06:11:43.345Z,8.30
2023-03-21T06:12:43.336Z,8.20
2023-03-21T06:13:43.308Z,8.90
2023-03-21T06:14:43.302Z,8.30
2023-03-21T06:15:43.317Z,10.20
2023-03-21T06:16:43.272Z,9.50
2023-03-21T06:17:43.272Z,9.50
2023-03-21T06:18:43.238Z,10.00
2023-03-21T06:19:43.243Z,12.00
2023-03-21T06:20:43.212Z,10.40
2023-03-21T06:21:43.219Z,10.20
2023-03-21T06:22:43.202Z,10.10
2023-03-21T06:23:43.187Z,10.30
2023-03-21T06:24:43.172Z,9.20
2023-03-21T06:25:43.159Z,8.80
2023-03-21T06:26:43.146Z,9.00
2023-03-21T06:27:43.140Z,9.20
2023-03-21T06:28:43.120Z,8.80
2023-03-21T06:29:43.103Z,8.40
2023-03-21T06:30:43.087Z,8.30
2023-03-21T06:31:43.114Z,7.40
2023-03-21T06:32:43.063Z,7.70
2023-03-21T06:33:43.042Z,7.50
2023-03-21T06:34:43.067Z,7.00
2023-03-21T06:35:43.087Z,7.50
2023-03-21T06:36:43.001Z,7.20
2023-03-21T06:37:43.002Z,7.40
2023-03-21T06:38:42.983Z,7.50
2023-03-21T06:39:42.962Z,7.30
2023-03-21T06:40:42.950Z,7.70
2023-03-21T06:41:42.941Z,6.80
2023-03-21T06:42:42.923Z,6.90
2023-03-21T06:43:42.916Z,6.90
2023-03-21T06:44:42.902Z,7.10
2023-03-21T06:45:42.884Z,7.00
2023-03-21T06:46:42.910Z,6.20
2023-03-21T06:47:43.017Z,6.60
2023-03-21T06:48:42.852Z,6.60
2023-03-21T06:49:42.837Z,5.90
2023-03-21T06:50:42.837Z,6.50
2023-03-21T06:51:42.828Z,5.70
2023-03-21T06:52:42.790Z,6.00
2023-03-21T06:53:42.785Z,5.90
2023-03-21T06:54:42.761Z,6.30
2023-03-21T06:55:42.759Z,5.80
2023-03-21T06:56:42.737Z,5.80
2023-03-21T06:57:42.756Z,5.50
2023-03-21T06:58:42.708Z,6.00
2023-03-21T06:59:42.717Z,5.50
2023-03-21T07:00:42.775Z,5.70
2023-03-21T07:01:42.671Z,5.40
2023-03-21T07:02:42.669Z,5.30
2023-03-21T07:03:42.661Z,5.70
2023-03-21T07:04:42.660Z,5.60
2023-03-21T07:05:42.619Z,5.50
2023-03-21T07:06:42.612Z,5.30
2023-03-21T07:07:42.611Z,5.60
2023-03-21T07:08:42.588Z,5.70
2023-03-21T07:09:42.561Z,5.70
2023-03-21T07:10:45.224Z,5.50
2023-03-21T07:11:42.551Z,5.60
2023-03-21T07:12:42.521Z,5.40
2023-03-21T07:13:42.525Z,5.40
2023-03-21T07:14:42.499Z,4.90
2023-03-21T07:15:42.500Z,5.00
2023-03-21T07:16:42.478Z,5.20
2023-03-21T07:17:42.481Z,4.90
2023-03-21T07:18:42.450Z,4.70
2023-03-21T07:19:44.754Z,4.70
2023-03-21T07:20:42.419Z,4.20
2023-03-21T07:21:42.400Z,4.40
2023-03-21T07:22:42.416Z,4.30
2023-03-21T07:23:42.396Z,4.70
2023-03-21T07:24:42.361Z,4.60
2023-03-21T07:25:42.390Z,4.40
2023-03-21T07:26:42.332Z,4.60
2023-03-21T07:27:42.362Z,4.40
2023-03-21T07:28:42.309Z,4.50
2023-03-21T07:29:42.296Z,4.20
2023-03-21T07:30:42.287Z,4.50
2023-03-21T07:31:42.356Z,4.40
2023-03-21T07:32:42.262Z,4.20
2023-03-21T07:33:42.243Z,4.20
2023-03-21T07:34:42.232Z,4.20
2023-03-21T07:35:42.250Z,4.60
2023-03-21T07:36:42.198Z,4.50
2023-03-21T07:37:42.279Z,4.30
2023-03-21T07:38:42.187Z,4.20
2023-03-21T07:39:42.166Z,4.50
2023-03-21T07:40:42.152Z,4.00
2023-03-21T07:41:42.158Z,4.30
2023-03-21T07:42:42.141Z,4.30
2023-03-21T07:43:42.115Z,4.40
2023-03-21T07:44:42.119Z,4.30
2023-03-21T07:45:42.313Z,4.30
2023-03-21T07:46:42.078Z,4.40
2023-03-21T07:47:42.118Z,4.20
2023-03-21T07:48:42.049Z,4.20
2023-03-21T07:49:42.153Z,4.20
2023-03-21T07:50:42.064Z,4.40
2023-03-21T07:51:42.029Z,4.20
2023-03-21T07:52:43.266Z,4.50
2023-03-21T07:53:42.024Z,4.50
2023-03-21T07:54:41.957Z,4.30
2023-03-21T07:55:41.946Z,4.30
2023-03-21T07:56:41.927Z,4.30
2023-03-21T07:57:41.947Z,4.50
2023-03-21T07:58:41.898Z,4.20
2023-03-21T07:59:41.893Z,4.50
2023-03-21T08:00:41.887Z,3.90
2023-03-21T08:01:41.875Z,4.40
2023-03-21T08:02:41.938Z,4.30
2023-03-21T08:03:41.914Z,4.10
2023-03-21T08:04:41.838Z,4.50
2023-03-21T08:05:42.222Z,3.90
2023-03-21T08:06:41.807Z,4.20
2023-03-21T08:07:41.812Z,4.60
2023-03-21T08:08:41.786Z,4.40
2023-03-21T08:09:41.770Z,4.40
2023-03-21T08:10:41.746Z,4.00
2023-03-21T08:11:41.745Z,4.30
2023-03-21T08:12:41.732Z,4.50
2023-03-21T08:13:41.708Z,4.50
2023-03-21T08:14:41.694Z,4.10
2023-03-21T08:15:41.676Z,4.10
2023-03-21T08:16:41.687Z,4.40
2023-03-21T08:17:41.681Z,4.40
2023-03-21T08:18:41.657Z,4.30
2023-03-21T08:19:41.624Z,4.10
2023-03-21T08:20:41.636Z,4.20
2023-03-21T08:21:41.613Z,4.10
2023-03-21T08:22:41.605Z,3.80
2023-03-21T08:23:41.576Z,4.10
2023-03-21T08:24:41.566Z,4.20
2023-03-21T08:25:41.560Z,4.10
2023-03-21T08:26:41.566Z,3.80
2023-03-21T08:27:41.545Z,4.00
2023-03-21T08:28:41.504Z,4.20
2023-03-21T08:29:41.501Z,4.20
2023-03-21T08:30:41.493Z,3.90
2023-03-21T08:31:41.500Z,4.00
2023-03-21T08:32:41.457Z,3.80
2023-03-21T08:33:41.449Z,3.80
2023-03-21T08:34:41.421Z,3.50
2023-03-21T08:35:41.824Z,4.20
2023-03-21T08:36:41.406Z,3.90
2023-03-21T08:37:41.403Z,4.20
2023-03-21T08:38:41.378Z,4.20
2023-03-21T08:39:41.372Z,4.30
2023-03-21T08:40:41.347Z,3.80
2023-03-21T08:41:41.337Z,4.30
2023-03-21T08:42:41.325Z,4.10
2023-03-21T08:43:41.308Z,3.80
2023-03-21T08:44:41.292Z,3.90
2023-03-21T08:45:41.297Z,4.00
2023-03-21T08:46:41.303Z,4.30
2023-03-21T08:47:41.350Z,3.90
2023-03-21T08:48:41.243Z,4.40
2023-03-21T08:49:41.224Z,4.10
2023-03-21T08:50:41.218Z,4.10
2023-03-21T08:51:41.249Z,4.50
2023-03-21T08:52:41.198Z,4.10
2023-03-21T08:53:41.226Z,4.10
2023-03-21T08:54:41.194Z,4.40
2023-03-21T08:55:41.145Z,3.90
2023-03-21T08:56:41.135Z,4.30
2023-03-21T08:57:41.129Z,4.00
2023-03-21T08:58:41.107Z,4.20
2023-03-21T08:59:41.096Z,4.40
2023-03-21T09:00:41.078Z,4.10
2023-03-21T09:01:41.112Z,4.50
2023-03-21T09:02:41.061Z,4.60
2023-03-21T09:03:41.055Z,4.50
2023-03-21T09:04:41.095Z,4.50
2023-03-21T09:05:41.013Z,4.10
2023-03-21T09:06:41.060Z,4.20
2023-03-21T09:07:41.004Z,4.40
2023-03-21T09:08:40.977Z,4.20
2023-03-21T09:09:40.967Z,4.30
2023-03-21T09:10:40.943Z,4.60
2023-03-21T09:11:40.939Z,5.00
2023-03-21T09:12:40.926Z,4.60
2023-03-21T09:13:40.917Z,4.60
2023-03-21T09:14:40.886Z,4.80
2023-03-21T09:15:41.042Z,4.90
2023-03-21T09:16:40.878Z,4.30
2023-03-21T09:17:40.897Z,4.20
2023-03-21T09:18:40.851Z,4.30
2023-03-21T09:19:40.838Z,4.50
2023-03-21T09:20:40.824Z,4.50
2023-03-21T09:21:40.800Z,4.50
2023-03-21T09:22:42.594Z,4.00
2023-03-21T09:23:40.778Z,4.30
2023-03-21T09:24:40.755Z,4.20
2023-03-21T09:25:40.935Z,4.20
2023-03-21T09:26:40.726Z,4.60
2023-03-21T09:27:41.697Z,4.40
2023-03-21T09:28:40.745Z,4.20
2023-03-21T09:29:40.687Z,3.80
2023-03-21T09:30:40.676Z,4.10
2023-03-21T09:31:40.721Z,4.50
2023-03-21T09:32:40.656Z,4.50
2023-03-21T09:33:40.656Z,4.20
2023-03-21T09:34:40.763Z,3.60
2023-03-21T09:35:41.264Z,3.30
2023-03-21T09:36:40.607Z,3.40
2023-03-21T09:37:40.593Z,3.80
2023-03-21T09:38:40.581Z,4.20
2023-03-21T09:39:40.578Z,3.70
2023-03-21T09:40:40.540Z,3.40
2023-03-21T09:41:40.534Z,3.30
2023-03-21T09:42:40.533Z,3.50
2023-03-21T09:43:40.514Z,3.90
2023-03-21T09:44:40.488Z,3.40
2023-03-21T09:45:40.627Z,3.60
2023-03-21T09:46:40.502Z,3.70
2023-03-21T09:47:40.497Z,3.60
2023-03-21T09:48:53.966Z,3.40
2023-03-21T09:49:41.454Z,3.40
2023-03-21T09:50:40.421Z,3.40
2023-03-21T09:51:40.428Z,3.50
2023-03-21T09:52:40.403Z,3.40
2023-03-21T09:53:40.372Z,3.50
2023-03-21T09:54:40.353Z,3.90
2023-03-21T09:55:40.866Z,3.90
2023-03-21T09:56:40.652Z,3.30
2023-03-21T09:57:40.354Z,3.50
2023-03-21T09:58:40.308Z,3.60
2023-03-21T09:59:40.413Z,3.80
2023-03-21T10:00:40.357Z,3.80
2023-03-21T10:01:40.264Z,3.80
2023-03-21T10:02:40.262Z,3.50
2023-03-21T10:03:40.233Z,4.20
2023-03-21T10:04:40.325Z,3.70
2023-03-21T10:05:40.532Z,3.50
2023-03-21T10:06:40.410Z,3.60
2023-03-21T10:07:40.185Z,3.20
2023-03-21T10:08:40.162Z,3.60
2023-03-21T10:09:40.167Z,3.40
2023-03-21T10:10:40.572Z,3.40
2023-03-21T10:11:40.125Z,3.50
2023-03-21T10:12:40.132Z,4.00
2023-03-21T10:13:40.094Z,3.50
2023-03-21T10:14:40.092Z,3.70
2023-03-21T10:15:40.341Z,3.70
2023-03-21T10:16:40.088Z,3.50
2023-03-21T10:17:40.064Z,3.60
2023-03-21T10:18:40.042Z,3.50
2023-03-21T10:19:40.018Z,3.30
2023-03-21T10:20:40.018Z,3.40
2023-03-21T10:22:41.017Z,3.50
2023-03-21T10:23:39.972Z,3.60
2023-03-21T10:24:39.961Z,3.60
2023-03-21T10:25:40.255Z,3.00
2023-03-21T10:26:39.931Z,3.40
2023-03-21T10:27:39.937Z,3.70
2023-03-21T10:28:52.375Z,3.60
2023-03-21T10:29:40.963Z,3.70
2023-03-21T10:30:39.879Z,3.30
2023-03-21T10:31:39.931Z,3.70
2023-03-21T10:32:39.928Z,3.30
2023-03-21T10:33:39.836Z,3.00
2023-03-21T10:34:39.824Z,3.60
2023-03-21T10:35:40.493Z,3.80
2023-03-21T10:36:39.804Z,3.30
2023-03-21T10:37:39.794Z,3.50
2023-03-21T10:38:39.772Z,3.30
2023-03-21T10:39:39.769Z,3.40
2023-03-21T10:40:39.752Z,3.40
2023-03-21T10:41:39.730Z,3.60
2023-03-21T10:42:39.722Z,3.00
2023-03-21T10:43:39.705Z,3.30
2023-03-21T10:44:39.687Z,3.70
2023-03-21T10:45:40.012Z,3.50
2023-03-21T10:46:39.950Z,3.50
2023-03-21T10:47:39.933Z,3.20
2023-03-21T10:48:39.795Z,3.50
2023-03-21T10:50:05.463Z,3.20
2023-03-21T10:50:40.693Z,3.00
2023-03-21T10:51:39.592Z,2.90
2023-03-21T10:52:39.595Z,3.40
2023-03-21T10:53:39.572Z,3.40
2023-03-21T10:54:39.565Z,3.40
2023-03-21T10:55:39.959Z,3.20
2023-03-21T10:56:39.538Z,3.50
2023-03-21T10:57:39.538Z,3.40
2023-03-21T10:58:39.527Z,2.90
2023-03-21T10:59:39.484Z,2.90
2023-03-21T11:00:39.473Z,3.20
2023-03-21T11:01:39.546Z,2.90
2023-03-21T11:02:39.529Z,3.00
2023-03-21T11:03:39.432Z,3.00
2023-03-21T11:04:39.424Z,3.00
2023-03-21T11:05:39.630Z,2.90
2023-03-21T11:06:39.410Z,3.20
2023-03-21T11:07:39.397Z,3.50
2023-03-21T11:08:39.393Z,2.90
2023-03-21T11:09:39.355Z,3.00
2023-03-21T11:10:39.336Z,3.20
2023-03-21T11:11:39.341Z,3.40
2023-03-21T11:12:39.340Z,3.00
2023-03-21T11:13:39.301Z,3.20
2023-03-21T11:14:39.289Z,3.30
2023-03-21T11:15:39.610Z,3.40
2023-03-21T11:16:40.522Z,3.20
2023-03-21T11:17:39.260Z,2.90
2023-03-21T11:18:39.241Z,2.90
2023-03-21T11:19:39.275Z,2.50
2023-03-21T11:20:39.236Z,2.70
2023-03-21T11:21:39.192Z,2.80
2023-03-21T11:22:39.192Z,2.80
2023-03-21T11:23:39.186Z,2.80
2023-03-21T11:24:39.164Z,3.00
2023-03-21T11:25:39.439Z,2.70
2023-03-21T11:26:39.154Z,2.70
2023-03-21T11:27:39.126Z,2.50
2023-03-21T11:28:39.159Z,2.50
2023-03-21T11:29:39.108Z,2.80
2023-03-21T11:30:39.126Z,2.50
2023-03-21T11:31:39.070Z,2.60
2023-03-21T11:32:39.068Z,2.70
2023-03-21T11:33:39.038Z,2.30
2023-03-21T11:34:39.022Z,2.20
2023-03-21T11:35:39.318Z,2.50
2023-03-21T11:36:39.090Z,2.50
2023-03-21T11:37:38.983Z,2.40
2023-03-21T11:38:39.014Z,2.70
2023-03-21T11:39:38.958Z,2.60
2023-03-21T11:40:40.622Z,2.60
2023-03-21T11:41:38.929Z,2.70
2023-03-21T11:42:38.926Z,2.10
2023-03-21T11:43:38.896Z,2.30
2023-03-21T11:44:38.886Z,2.30
2023-03-21T11:45:39.243Z,2.30
2023-03-21T11:46:38.921Z,2.10
2023-03-21T11:47:38.918Z,2.10
2023-03-21T11:48:38.842Z,2.30
2023-03-21T11:49:38.831Z,2.00
2023-03-21T11:50:38.818Z,1.90
2023-03-21T11:51:38.832Z,1.80
2023-03-21T11:52:38.797Z,2.10
2023-03-21T11:53:38.787Z,2.00
2023-03-21T11:54:38.757Z,2.20
2023-03-21T11:55:39.133Z,1.80
2023-03-21T11:56:38.738Z,2.00
2023-03-21T11:57:38.809Z,1.90
2023-03-21T11:58:38.756Z,2.00
2023-03-21T11:59:38.686Z,2.10
2023-03-21T12:00:38.688Z,1.80
2023-03-21T12:01:38.698Z,2.10
2023-03-21T12:02:38.712Z,2.10
2023-03-21T12:03:47.551Z,2.00
2023-03-21T12:04:39.721Z,1.60
2023-03-21T12:05:38.902Z,2.00
2023-03-21T12:06:38.670Z,1.50
2023-03-21T12:07:38.599Z,1.70
2023-03-21T12:08:38.569Z,1.70
2023-03-21T12:09:38.575Z,1.40
2023-03-21T12:10:38.545Z,1.60
2023-03-21T12:11:38.533Z,1.90
2023-03-21T12:12:39.670Z,1.80
2023-03-21T12:13:38.496Z,1.90
2023-03-21T12:14:38.496Z,1.60
2023-03-21T12:15:38.951Z,1.40
2023-03-21T12:16:38.526Z,1.80
2023-03-21T12:17:38.474Z,2.00
2023-03-21T12:18:38.479Z,1.70
2023-03-21T12:19:38.461Z,1.90
2023-03-21T12:20:38.432Z,1.90
2023-03-21T12:21:38.401Z,1.60
2023-03-21T12:22:38.470Z,1.70
2023-03-21T12:23:38.468Z,2.00
2023-03-21T12:24:38.397Z,2.20
2023-03-21T12:25:38.687Z,2.40
2023-03-21T12:26:38.369Z,1.90
2023-03-21T12:27:38.326Z,2.40
2023-03-21T12:28:38.307Z,2.30
2023-03-21T12:29:38.282Z,2.10
2023-03-21T12:30:38.352Z,2.10
2023-03-21T12:31:38.311Z,2.00
2023-03-21T12:32:38.262Z,2.10
2023-03-21T12:33:38.236Z,2.20
2023-03-21T12:34:38.269Z,2.20
2023-03-21T12:35:38.486Z,2.30
2023-03-21T12:36:38.195Z,2.00
2023-03-21T12:37:38.209Z,2.10
2023-03-21T12:38:38.188Z,2.00
2023-03-21T12:39:38.152Z,2.00
2023-03-21T12:40:38.140Z,2.20
2023-03-21T12:41:38.117Z,2.10
2023-03-21T12:42:38.152Z,1.90
2023-03-21T12:43:38.094Z,1.50
2023-03-21T12:44:38.115Z,1.90
2023-03-21T12:45:46.713Z,2.10
2023-03-21T12:46:39.099Z,1.70
2023-03-21T12:47:38.069Z,1.70
2023-03-21T12:48:38.042Z,1.90
2023-03-21T12:49:38.017Z,2.00
2023-03-21T12:50:38.034Z,1.90
2023-03-21T12:51:37.989Z,1.80
2023-03-21T12:52:37.999Z,2.00
2023-03-21T12:53:37.982Z,1.90
2023-03-21T12:54:37.948Z,1.80
2023-03-21T12:55:38.313Z,1.90
2023-03-21T12:56:37.925Z,1.80
2023-03-21T12:57:40.106Z,2.10
2023-03-21T12:58:37.895Z,1.90
2023-03-21T12:59:37.888Z,1.90
2023-03-21T13:00:38.211Z,1.90
2023-03-21T13:01:37.849Z,1.60
2023-03-21T13:02:37.846Z,1.50
2023-03-21T13:03:40.640Z,1.50
2023-03-21T13:04:37.869Z,1.40
2023-03-21T13:05:37.808Z,1.50
2023-03-21T13:06:37.807Z,1.60
2023-03-21T13:07:37.776Z,1.70
2023-03-21T13:08:37.756Z,1.50
2023-03-21T13:09:38.454Z,1.40
2023-03-21T13:10:37.938Z,1.40
2023-03-21T13:11:37.728Z,1.70
2023-03-21T13:12:37.722Z,1.80
2023-03-21T13:13:37.696Z,1.80
2023-03-21T13:14:37.681Z,1.70
2023-03-21T13:15:37.664Z,1.50
2023-03-21T13:16:37.744Z,1.50
2023-03-21T13:17:37.658Z,1.80
2023-03-21T13:18:37.622Z,1.50
2023-03-21T13:19:37.661Z,1.50
2023-03-21T13:20:37.833Z,1.60
2023-03-21T13:21:37.582Z,1.60